createdAt,value
2022-12-25T00:02:10.244Z,5.35
2022-12-25T00:04:47.020Z,5.32
2022-12-25T00:07:22.914Z,5.34
2022-12-25T00:09:55.902Z,5.42
2022-12-25T00:12:32.014Z,5.30
2022-12-25T00:15:05.573Z,5.38
2022-12-25T00:17:41.862Z,5.32
2022-12-25T00:20:20.549Z,5.31
2022-12-25T00:22:53.790Z,5.25
2022-12-25T00:25:32.874Z,5.14
2022-12-25T00:28:13.073Z,5.00
2022-12-25T00:30:52.665Z,5.12
2022-12-25T00:33:28.566Z,5.07
2022-12-25T00:36:02.825Z,5.14
2022-12-25T00:38:40.549Z,5.11
2022-12-25T00:41:15.896Z,5.10
2022-12-25T00:43:48.696Z,5.05
2022-12-25T00:46:22.354Z,5.22
2022-12-25T00:49:04.593Z,5.14
2022-12-25T00:51:37.661Z,5.04
2022-12-25T00:54:17.346Z,4.91
2022-12-25T00:56:53.539Z,4.88
2022-12-25T00:59:27.081Z,4.61
2022-12-25T01:02:03.478Z,4.56
2022-12-25T01:04:39.401Z,4.52
2022-12-25T01:07:12.652Z,4.67
2022-12-25T01:09:49.010Z,4.51
2022-12-25T01:12:27.369Z,4.32
2022-12-25T01:15:00.863Z,4.22
2022-12-25T01:17:34.510Z,4.25
2022-12-25T01:20:12.286Z,4.25
2022-12-25T01:22:45.801Z,4.01
2022-12-25T01:25:21.635Z,3.94
2022-12-25T01:28:02.776Z,3.72
2022-12-25T01:30:38.941Z,3.61
2022-12-25T01:33:12.142Z,3.49
2022-12-25T01:35:44.954Z,3.64
2022-12-25T01:38:18.094Z,3.31
2022-12-25T01:40:51.008Z,3.17
2022-12-25T01:43:29.216Z,3.12
2022-12-25T01:46:08.060Z,3.14
2022-12-25T01:48:46.526Z,3.06
2022-12-25T01:51:47.949Z,2.95
2022-12-25T01:54:28.745Z,3.05
2022-12-25T01:57:06.069Z,3.05
2022-12-25T01:59:39.725Z,3.02
2022-12-25T02:02:16.592Z,2.87
2022-12-25T02:05:31.781Z,3.01
2022-12-25T02:08:14.946Z,2.99
2022-12-25T02:10:53.144Z,2.68
2022-12-25T02:13:26.482Z,2.76
2022-12-25T02:16:05.890Z,2.83
2022-12-25T02:18:58.373Z,2.80
2022-12-25T02:21:56.136Z,2.66
2022-12-25T02:24:52.525Z,2.49
2022-12-25T02:27:31.473Z,2.45
2022-12-25T02:30:13.599Z,2.22
2022-12-25T02:33:00.439Z,2.18
2022-12-25T02:35:40.349Z,2.27
2022-12-25T02:38:21.834Z,2.18
2022-12-25T02:41:01.554Z,2.21
2022-12-25T02:43:44.785Z,2.37
2022-12-25T02:46:24.036Z,2.55
2022-12-25T02:49:12.323Z,2.74
2022-12-25T02:51:52.608Z,2.92
2022-12-25T02:54:32.844Z,3.05
2022-12-25T02:57:14.743Z,3.19
2022-12-25T02:59:52.197Z,3.29
2022-12-25T03:02:28.565Z,3.35
2022-12-25T03:05:06.307Z,3.37
2022-12-25T03:07:42.620Z,3.36
2022-12-25T03:10:15.647Z,3.34
2022-12-25T03:13:13.721Z,3.26
2022-12-25T03:15:48.309Z,3.51
2022-12-25T03:18:28.716Z,3.36
2022-12-25T03:21:01.814Z,3.38
2022-12-25T03:23:37.270Z,3.39
2022-12-25T03:26:10.384Z,3.55
2022-12-25T03:28:44.042Z,3.70
2022-12-25T03:31:36.583Z,3.57
2022-12-25T03:34:22.252Z,3.75
2022-12-25T03:37:33.402Z,3.73
2022-12-25T03:40:14.299Z,3.76
2022-12-25T03:42:56.660Z,3.76
2022-12-25T03:45:42.684Z,3.76
2022-12-25T03:48:16.608Z,3.92
2022-12-25T03:51:12.327Z,3.87
2022-12-25T03:53:54.527Z,3.84
2022-12-25T03:56:30.858Z,3.72
2022-12-25T03:59:03.815Z,3.70
2022-12-25T04:01:36.825Z,3.66
2022-12-25T04:04:10.007Z,3.49
2022-12-25T04:06:43.116Z,3.41
2022-12-25T04:09:18.483Z,3.28
2022-12-25T04:11:51.335Z,3.20
2022-12-25T04:14:24.789Z,3.08
2022-12-25T04:16:57.846Z,2.99
2022-12-25T04:19:31.196Z,2.98
2022-12-25T04:22:04.958Z,2.99
2022-12-25T04:24:37.990Z,2.99
2022-12-25T04:27:11.120Z,2.99
2022-12-25T04:29:44.068Z,2.78
2022-12-25T04:32:17.041Z,2.77
2022-12-25T04:34:49.900Z,2.67
2022-12-25T04:37:26.580Z,2.69
2022-12-25T04:39:59.394Z,2.71
2022-12-25T04:42:32.795Z,2.48
2022-12-25T04:45:05.948Z,2.29
2022-12-25T04:47:38.982Z,2.35
2022-12-25T04:50:14.803Z,2.31
2022-12-25T04:52:48.228Z,2.15
2022-12-25T04:55:24.030Z,1.98
2022-12-25T04:57:57.201Z,2.04
2022-12-25T05:00:33.594Z,1.86
2022-12-25T05:03:07.497Z,1.73
2022-12-25T05:05:43.092Z,1.59
2022-12-25T05:08:15.906Z,1.94
2022-12-25T05:10:52.517Z,1.71
2022-12-25T05:13:25.581Z,1.50
2022-12-25T05:15:59.170Z,1.38
2022-12-25T05:18:32.891Z,1.41
2022-12-25T05:21:15.331Z,1.45
2022-12-25T05:23:52.932Z,1.37
2022-12-25T05:26:27.493Z,1.36
2022-12-25T05:29:03.493Z,1.42
2022-12-25T05:31:37.022Z,1.40
2022-12-25T05:34:10.034Z,1.48
2022-12-25T05:36:43.442Z,1.63
2022-12-25T05:39:16.819Z,1.48
2022-12-25T05:41:49.779Z,1.47
2022-12-25T05:44:25.248Z,1.27
2022-12-25T05:46:58.227Z,1.30
2022-12-25T05:49:31.909Z,1.20
2022-12-25T05:52:04.877Z,1.19
2022-12-25T05:54:37.978Z,1.11
2022-12-25T05:57:13.844Z,1.35
2022-12-25T05:59:46.720Z,1.10
2022-12-25T06:02:19.775Z,1.13
2022-12-25T06:04:52.939Z,1.02
2022-12-25T06:07:26.447Z,1.02
2022-12-25T06:09:59.911Z,0.98
2022-12-25T06:12:33.463Z,2.19
2022-12-25T06:15:07.642Z,5.36
2022-12-25T06:17:41.788Z,8.03
2022-12-25T06:20:16.084Z,8.78
2022-12-25T06:22:49.958Z,9.66
2022-12-25T06:25:29.414Z,10.06
2022-12-25T06:28:02.565Z,10.41
2022-12-25T06:30:35.740Z,9.70
2022-12-25T06:33:08.974Z,8.16
2022-12-25T06:35:42.804Z,5.77
2022-12-25T06:38:15.915Z,5.11
2022-12-25T06:40:49.079Z,4.33
2022-12-25T06:43:22.155Z,3.67
2022-12-25T06:45:55.413Z,3.03
2022-12-25T06:48:30.206Z,3.07
2022-12-25T06:51:04.103Z,2.84
2022-12-25T06:53:40.224Z,2.60
2022-12-25T06:56:16.465Z,2.62
2022-12-25T06:58:53.178Z,2.19
2022-12-25T07:01:33.991Z,2.16
2022-12-25T07:04:17.679Z,2.04
2022-12-25T07:06:50.400Z,2.39
2022-12-25T07:09:23.349Z,2.18
2022-12-25T07:12:05.563Z,2.66
2022-12-25T07:14:38.679Z,3.27
2022-12-25T07:17:12.036Z,4.50
2022-12-25T07:19:47.102Z,5.16
2022-12-25T07:22:20.241Z,5.38
2022-12-25T07:24:56.155Z,5.09
2022-12-25T07:27:30.135Z,4.37
2022-12-25T07:30:03.730Z,3.86
2022-12-25T07:32:36.997Z,3.91
2022-12-25T07:35:10.019Z,3.99
2022-12-25T07:37:43.358Z,3.98
2022-12-25T07:40:17.773Z,4.19
2022-12-25T07:42:50.657Z,4.21
2022-12-25T07:45:26.457Z,4.84
2022-12-25T07:48:04.969Z,5.19
2022-12-25T07:50:38.876Z,5.45
2022-12-25T07:53:11.923Z,7.93
2022-12-25T07:55:45.040Z,7.07
2022-12-25T07:58:23.103Z,6.69
2022-12-25T08:01:04.048Z,6.23
2022-12-25T08:03:37.658Z,8.89
2022-12-25T08:06:11.718Z,8.47
2022-12-25T08:08:45.177Z,7.22
2022-12-25T08:11:18.367Z,6.77
2022-12-25T08:13:54.351Z,6.72
2022-12-25T08:16:31.384Z,6.85
2022-12-25T08:19:04.552Z,7.12
2022-12-25T08:21:38.131Z,7.70
2022-12-25T08:24:11.294Z,8.01
2022-12-25T08:26:44.430Z,8.46
2022-12-25T08:29:17.818Z,9.38
2022-12-25T08:31:52.401Z,9.89
2022-12-25T08:34:26.047Z,10.44
2022-12-25T08:36:59.555Z,10.82
2022-12-25T08:39:32.649Z,11.62
2022-12-25T08:42:05.723Z,10.97
2022-12-25T08:44:39.010Z,10.58
2022-12-25T08:47:12.092Z,10.60
2022-12-25T08:49:45.434Z,13.77
2022-12-25T08:52:19.177Z,14.88
2022-12-25T08:54:52.916Z,14.83
2022-12-25T08:57:26.479Z,14.23
2022-12-25T08:59:59.700Z,15.00
2022-12-25T09:02:35.983Z,14.12
2022-12-25T09:05:10.971Z,15.24
2022-12-25T09:07:47.410Z,14.95
2022-12-25T09:10:24.034Z,12.68
2022-12-25T09:12:59.951Z,11.47
2022-12-25T09:15:33.400Z,11.37
2022-12-25T09:18:09.737Z,10.09
2022-12-25T09:20:44.963Z,9.68
2022-12-25T09:23:18.278Z,9.21
2022-12-25T09:25:54.327Z,9.00
2022-12-25T09:28:31.424Z,8.88
2022-12-25T09:31:05.007Z,8.91
2022-12-25T09:33:38.437Z,8.92
2022-12-25T09:36:11.597Z,9.08
2022-12-25T09:38:44.895Z,9.07
2022-12-25T09:41:34.579Z,9.34
2022-12-25T09:44:13.216Z,9.25
2022-12-25T09:47:04.638Z,8.98
2022-12-25T09:49:56.144Z,9.41
2022-12-25T09:52:46.522Z,9.49
2022-12-25T09:55:25.375Z,9.36
2022-12-25T09:58:08.765Z,9.29
2022-12-25T10:00:47.337Z,9.52
2022-12-25T10:03:29.667Z,9.33
2022-12-25T10:06:20.736Z,9.10
2022-12-25T10:09:10.837Z,9.48
2022-12-25T10:12:34.823Z,9.71
2022-12-25T10:15:21.289Z,9.46
2022-12-25T10:18:13.148Z,9.50
2022-12-25T10:20:55.900Z,9.69
2022-12-25T10:23:58.192Z,9.54
2022-12-25T10:26:33.884Z,9.33
2022-12-25T10:29:18.013Z,9.57
2022-12-25T10:31:54.863Z,9.62
2022-12-25T10:34:27.840Z,9.73
2022-12-25T10:37:00.948Z,9.66
2022-12-25T10:39:33.867Z,10.07
2022-12-25T10:42:39.234Z,10.11
2022-12-25T10:45:12.584Z,10.16
2022-12-25T10:47:45.683Z,10.34
2022-12-25T10:50:24.723Z,10.66
2022-12-25T10:53:09.080Z,10.77
2022-12-25T10:55:42.339Z,10.80
2022-12-25T10:58:20.126Z,10.99
2022-12-25T11:01:04.879Z,11.27
2022-12-25T11:03:40.462Z,11.14
2022-12-25T11:06:25.931Z,11.13
2022-12-25T11:09:01.849Z,11.30
2022-12-25T11:11:37.987Z,11.65
2022-12-25T11:14:19.168Z,11.68
2022-12-25T11:16:52.341Z,11.84
2022-12-25T11:19:32.481Z,12.06
2022-12-25T11:22:17.708Z,12.41
2022-12-25T11:24:50.936Z,12.44
2022-12-25T11:27:29.263Z,12.52
2022-12-25T11:30:04.705Z,12.50
2022-12-25T11:32:45.450Z,12.52
2022-12-25T11:35:18.969Z,12.36
2022-12-25T11:37:55.223Z,12.40
2022-12-25T11:40:36.727Z,12.68
2022-12-25T11:43:43.598Z,12.65
2022-12-25T11:46:38.548Z,13.05
2022-12-25T11:49:20.143Z,13.15
2022-12-25T11:51:56.474Z,13.46
2022-12-25T11:54:45.314Z,13.27
2022-12-25T11:57:18.943Z,13.96
2022-12-25T12:00:02.120Z,14.21
2022-12-25T12:02:59.001Z,14.38
2022-12-25T12:05:42.731Z,14.83
2022-12-25T12:08:15.806Z,15.13
2022-12-25T12:11:21.748Z,15.79
2022-12-25T12:14:06.625Z,15.61
2022-12-25T12:16:39.693Z,15.98
2022-12-25T12:19:26.607Z,15.88
2022-12-25T12:22:03.099Z,15.15
2022-12-25T12:24:42.849Z,13.99
2022-12-25T12:27:36.638Z,13.13
2022-12-25T12:30:29.198Z,12.81
2022-12-25T12:33:06.075Z,12.77
2022-12-25T12:35:40.451Z,12.53
2022-12-25T12:38:13.527Z,12.46
2022-12-25T12:40:55.618Z,12.44
2022-12-25T12:43:39.734Z,12.33
2022-12-25T12:46:31.016Z,12.27
2022-12-25T12:49:20.887Z,12.28
2022-12-25T12:52:24.840Z,12.18
2022-12-25T12:55:06.618Z,12.19
2022-12-25T12:57:39.922Z,12.28
2022-12-25T13:00:18.777Z,12.18
2022-12-25T13:03:16.553Z,12.13
2022-12-25T13:06:20.322Z,12.03
2022-12-25T13:09:41.435Z,12.00
2022-12-25T13:12:17.046Z,12.01
2022-12-25T13:14:50.724Z,12.00
2022-12-25T13:17:25.867Z,11.95
2022-12-25T13:20:01.162Z,11.87
2022-12-25T13:22:36.453Z,11.89
2022-12-25T13:25:16.326Z,11.90
2022-12-25T13:27:58.561Z,11.80
2022-12-25T13:30:32.847Z,11.77
2022-12-25T13:33:06.653Z,11.80
2022-12-25T13:35:43.673Z,11.80
2022-12-25T13:38:17.970Z,11.78
2022-12-25T13:40:52.973Z,11.74
2022-12-25T13:43:26.934Z,11.74
2022-12-25T13:45:59.979Z,11.71
2022-12-25T13:48:33.335Z,11.70
2022-12-25T13:51:14.958Z,11.68
2022-12-25T13:53:47.876Z,11.62
2022-12-25T13:56:21.077Z,11.57
2022-12-25T13:58:54.282Z,11.54
2022-12-25T14:01:28.495Z,11.53
2022-12-25T14:04:01.737Z,11.51
2022-12-25T14:06:34.867Z,11.43
2022-12-25T14:09:12.158Z,11.35
2022-12-25T14:11:50.301Z,11.29
2022-12-25T14:14:25.696Z,11.26
2022-12-25T14:17:01.611Z,11.19
2022-12-25T14:19:41.524Z,11.20
2022-12-25T14:22:23.960Z,11.18
2022-12-25T14:25:02.995Z,11.13
2022-12-25T14:27:48.434Z,11.03
2022-12-25T14:30:23.887Z,10.96
2022-12-25T14:32:57.807Z,10.89
2022-12-25T14:35:31.301Z,10.85
2022-12-25T14:38:06.467Z,10.78
2022-12-25T14:40:39.501Z,10.75
2022-12-25T14:43:28.005Z,10.67
2022-12-25T14:46:03.674Z,10.69
2022-12-25T14:48:36.664Z,10.61
2022-12-25T14:51:16.829Z,10.60
2022-12-25T14:53:53.320Z,10.55
2022-12-25T14:56:30.406Z,10.50
2022-12-25T14:59:05.337Z,10.41
2022-12-25T15:01:41.288Z,10.31
2022-12-25T15:04:17.517Z,10.23
2022-12-25T15:07:01.918Z,10.08
2022-12-25T15:09:35.550Z,9.94
2022-12-25T15:12:08.808Z,9.92
2022-12-25T15:14:41.845Z,9.91
2022-12-25T15:17:27.476Z,9.86
2022-12-25T15:20:01.716Z,9.73
2022-12-25T15:22:53.923Z,9.63
2022-12-25T15:25:29.683Z,9.61
2022-12-25T15:28:12.534Z,9.52
2022-12-25T15:30:46.415Z,9.32
2022-12-25T15:33:19.710Z,9.23
2022-12-25T15:35:52.818Z,9.18
2022-12-25T15:38:25.893Z,8.87
2022-12-25T15:40:59.258Z,8.81
2022-12-25T15:43:41.813Z,8.75
2022-12-25T15:46:17.423Z,8.72
2022-12-25T15:48:50.568Z,8.53
2022-12-25T15:51:24.351Z,8.39
2022-12-25T15:53:57.666Z,9.19
2022-12-25T15:56:50.209Z,8.91
2022-12-25T15:59:26.315Z,8.66
2022-12-25T16:02:01.596Z,8.55
2022-12-25T16:04:34.785Z,8.32
2022-12-25T16:07:16.929Z,8.18
2022-12-25T16:09:50.349Z,8.23
2022-12-25T16:12:23.777Z,8.32
2022-12-25T16:14:56.914Z,8.34
2022-12-25T16:17:29.945Z,8.14
2022-12-25T16:20:03.800Z,7.92
2022-12-25T16:22:36.794Z,7.92
2022-12-25T16:25:19.908Z,7.89
2022-12-25T16:27:52.733Z,7.76
2022-12-25T16:30:25.804Z,7.62
2022-12-25T16:32:59.211Z,7.73
2022-12-25T16:35:33.167Z,7.56
2022-12-25T16:38:07.752Z,7.34
2022-12-25T16:40:43.229Z,7.68
2022-12-25T16:43:21.903Z,7.54
2022-12-25T16:45:56.963Z,7.59
2022-12-25T16:48:30.001Z,7.59
2022-12-25T16:51:29.288Z,7.83
2022-12-25T16:54:02.494Z,7.91
2022-12-25T16:56:35.678Z,7.97
2022-12-25T16:59:08.681Z,7.93
2022-12-25T17:01:42.279Z,7.95
2022-12-25T17:04:15.474Z,7.78
2022-12-25T17:06:49.114Z,7.84
2022-12-25T17:09:22.193Z,7.85
2022-12-25T17:11:56.585Z,7.70
2022-12-25T17:14:29.870Z,7.79
2022-12-25T17:17:03.056Z,7.71
2022-12-25T17:19:36.560Z,7.42
2022-12-25T17:22:09.723Z,7.25
2022-12-25T17:24:42.863Z,7.35
2022-12-25T17:27:18.972Z,6.99
2022-12-25T17:29:52.151Z,6.96
2022-12-25T17:32:25.037Z,6.96
2022-12-25T17:34:58.729Z,6.86
2022-12-25T17:37:33.743Z,6.93
2022-12-25T17:40:07.573Z,7.00
2022-12-25T17:42:41.632Z,7.05
2022-12-25T17:45:15.031Z,6.69
2022-12-25T17:47:53.206Z,6.64
2022-12-25T17:50:29.780Z,6.76
2022-12-25T17:53:02.725Z,6.72
2022-12-25T17:55:38.548Z,7.12
2022-12-25T17:58:13.107Z,12.43
2022-12-25T18:00:46.231Z,10.45
2022-12-25T18:03:20.336Z,8.37
2022-12-25T18:05:53.707Z,7.81
2022-12-25T18:08:27.511Z,7.17
2022-12-25T18:11:06.319Z,7.23
2022-12-25T18:13:39.905Z,7.15
2022-12-25T18:16:14.217Z,7.41
2022-12-25T18:18:52.296Z,6.59
2022-12-25T18:21:26.246Z,6.62
2022-12-25T18:23:59.436Z,6.60
2022-12-25T18:26:33.672Z,6.71
2022-12-25T18:29:06.871Z,6.49
2022-12-25T18:31:39.922Z,6.44
2022-12-25T18:34:12.918Z,6.13
2022-12-25T18:36:45.894Z,6.24
2022-12-25T18:39:18.975Z,6.30
2022-12-25T18:41:52.289Z,6.30
2022-12-25T18:44:25.389Z,6.18
2022-12-25T18:46:58.724Z,6.02
2022-12-25T18:49:32.730Z,5.91
2022-12-25T18:52:48.592Z,5.92
2022-12-25T18:54:58.829Z,5.96
2022-12-25T18:57:31.794Z,5.92
2022-12-25T19:00:05.646Z,6.05
2022-12-25T19:02:38.862Z,6.03
2022-12-25T19:05:12.416Z,5.92
2022-12-25T19:07:45.341Z,5.91
2022-12-25T19:10:18.118Z,5.79
2022-12-25T19:12:50.935Z,5.77
2022-12-25T19:15:24.010Z,5.61
2022-12-25T19:17:57.025Z,5.54
2022-12-25T19:20:29.888Z,5.49
2022-12-25T19:23:02.949Z,5.48
2022-12-25T19:25:39.000Z,5.36
2022-12-25T19:28:12.328Z,5.31
2022-12-25T19:30:45.184Z,5.24
2022-12-25T19:33:18.710Z,5.13
2022-12-25T19:35:53.410Z,5.16
2022-12-25T19:38:26.480Z,5.10
2022-12-25T19:40:59.481Z,4.95
2022-12-25T19:43:35.164Z,5.04
2022-12-25T19:46:14.849Z,5.17
2022-12-25T19:48:48.167Z,5.12
2022-12-25T19:51:24.446Z,4.94
2022-12-25T19:53:57.386Z,4.77
2022-12-25T19:56:33.527Z,4.84
2022-12-25T19:59:06.737Z,4.84
2022-12-25T20:01:39.704Z,5.05
2022-12-25T20:04:14.860Z,4.89
2022-12-25T20:06:47.711Z,4.69
2022-12-25T20:09:21.751Z,4.72
2022-12-25T20:11:54.972Z,4.75
2022-12-25T20:14:28.297Z,4.73
2022-12-25T20:17:01.412Z,4.55
2022-12-25T20:19:34.370Z,4.54
2022-12-25T20:22:07.510Z,4.50
2022-12-25T20:24:40.401Z,4.53
2022-12-25T20:27:13.317Z,4.66
2022-12-25T20:29:46.494Z,4.71
2022-12-25T20:32:19.597Z,8.73
2022-12-25T20:35:05.636Z,5.83
2022-12-25T20:37:51.273Z,5.11
2022-12-25T20:40:24.244Z,4.87
2022-12-25T20:42:57.189Z,5.02
2022-12-25T20:45:30.311Z,5.04
2022-12-25T20:48:03.527Z,5.00
2022-12-25T20:50:36.452Z,5.18
2022-12-25T20:53:09.224Z,5.02
2022-12-25T20:55:49.732Z,4.65
2022-12-25T20:58:25.785Z,4.77
2022-12-25T21:00:59.385Z,4.46
2022-12-25T21:03:34.115Z,4.44
2022-12-25T21:06:08.345Z,4.53
2022-12-25T21:08:41.362Z,4.48
2022-12-25T21:11:14.629Z,4.48
2022-12-25T21:13:50.429Z,4.27
2022-12-25T21:16:26.209Z,4.40
2022-12-25T21:18:59.920Z,4.12
2022-12-25T21:21:36.120Z,4.32
2022-12-25T21:24:12.204Z,4.37
2022-12-25T21:26:48.106Z,4.19
2022-12-25T21:29:23.916Z,4.05
2022-12-25T21:31:56.850Z,4.02
2022-12-25T21:34:31.468Z,4.16
2022-12-25T21:37:09.933Z,3.85
2022-12-25T21:39:48.726Z,3.95
2022-12-25T21:42:21.968Z,4.11
2022-12-25T21:44:55.040Z,4.14
2022-12-25T21:47:59.759Z,4.23
2022-12-25T21:50:28.182Z,4.01
2022-12-25T21:53:05.572Z,3.94
2022-12-25T21:55:38.938Z,3.82
2022-12-25T21:58:14.542Z,3.76
2022-12-25T22:00:47.644Z,3.89
2022-12-25T22:03:20.974Z,4.04
2022-12-25T22:06:04.108Z,3.93
2022-12-25T22:08:40.778Z,4.02
2022-12-25T22:11:13.795Z,3.93
2022-12-25T22:13:46.764Z,4.05
2022-12-25T22:16:19.621Z,3.85
2022-12-25T22:18:52.384Z,3.69
2022-12-25T22:21:25.768Z,3.62
2022-12-25T22:24:00.131Z,3.77
2022-12-25T22:26:36.281Z,3.45
2022-12-25T22:29:09.379Z,3.24
2022-12-25T22:31:46.686Z,3.23
2022-12-25T22:34:20.153Z,3.56
2022-12-25T22:36:53.171Z,3.33
2022-12-25T22:39:27.367Z,3.29
2022-12-25T22:42:01.707Z,3.25
2022-12-25T22:44:35.687Z,3.55
2022-12-25T22:47:11.028Z,3.38
2022-12-25T22:49:46.860Z,3.22
2022-12-25T22:52:20.702Z,3.19
2022-12-25T22:54:54.111Z,3.18
2022-12-25T22:57:29.399Z,3.24
2022-12-25T23:00:02.706Z,3.26
2022-12-25T23:02:36.839Z,3.08
2022-12-25T23:05:12.423Z,3.40
2022-12-25T23:07:48.360Z,3.32
2022-12-25T23:10:26.873Z,3.22
2022-12-25T23:13:02.334Z,3.24
2022-12-25T23:15:38.205Z,3.24
2022-12-25T23:18:14.839Z,3.13
2022-12-25T23:20:48.287Z,3.18
2022-12-25T23:23:21.345Z,3.01
2022-12-25T23:25:54.753Z,2.97
2022-12-25T23:28:28.907Z,2.76
2022-12-25T23:31:05.481Z,2.71
2022-12-25T23:33:38.498Z,2.68
2022-12-25T23:36:14.363Z,2.37
2022-12-25T23:38:53.955Z,1.99
2022-12-25T23:41:30.021Z,2.25
2022-12-25T23:44:03.979Z,2.25
2022-12-25T23:46:37.358Z,2.19
2022-12-25T23:49:14.267Z,2.08
2022-12-25T23:51:51.698Z,2.14
2022-12-25T23:54:29.773Z,2.15
2022-12-25T23:57:09.139Z,2.54
2022-12-25T23:59:41.974Z,2.24
